sensor_id;sensor_type;location;lat;lon;timestamp;pressure;altitude;pressure_sealevel;temperature;humidity
64711;BME280;51139;45.626;6.850;2023-11-19T07:37:13;82443.84;;;5.24;100.00
64711;BME280;51139;45.626;6.850;2023-11-19T07:39:39;82435.16;;;5.72;100.00
64711;BME280;51139;45.626;6.850;2023-11-19T07:42:06;82445.38;;;6.18;100.00
64711;BME280;51139;45.626;6.850;2023-11-19T07:44:32;82441.53;;;7.14;100.00
64711;BME280;51139;45.626;6.850;2023-11-19T07:46:57;82441.78;;;7.32;100.00
64711;BME280;51139;45.626;6.850;2023-11-19T07:49:23;82443.22;;;7.40;100.00
64711;BME280;51139;45.626;6.850;2023-11-19T07:51:49;82442.44;;;7.84;100.00
64711;BME280;51139;45.626;6.850;2023-11-19T07:54:14;82432.78;;;8.10;100.00
64711;BME280;51139;45.626;6.850;2023-11-19T07:56:39;82446.88;;;8.44;100.00
64711;BME280;51139;45.626;6.850;2023-11-19T07:59:05;82440.00;;;8.17;100.00
64711;BME280;51139;45.626;6.850;2023-11-19T08:01:31;82437.72;;;8.76;100.00
64711;BME280;51139;45.626;6.850;2023-11-19T08:03:57;82435.81;;;9.41;100.00
64711;BME280;51139;45.626;6.850;2023-11-19T08:06:22;82436.13;;;9.53;100.00
64711;BME280;51139;45.626;6.850;2023-11-19T08:08:48;82429.81;;;10.14;100.00
64711;BME280;51139;45.626;6.850;2023-11-19T08:11:14;82443.00;;;10.55;100.00
64711;BME280;51139;45.626;6.850;2023-11-19T08:13:40;82428.94;;;11.31;100.00
64711;BME280;51139;45.626;6.850;2023-11-19T08:16:06;82437.72;;;12.04;100.00
64711;BME280;51139;45.626;6.850;2023-11-19T08:18:31;82437.13;;;12.50;100.00
64711;BME280;51139;45.626;6.850;2023-11-19T08:20:57;82438.88;;;12.38;100.00
64711;BME280;51139;45.626;6.850;2023-11-19T08:23:24;82431.38;;;12.81;100.00
64711;BME280;51139;45.626;6.850;2023-11-19T08:25:50;82435.31;;;12.53;100.00
64711;BME280;51139;45.626;6.850;2023-11-19T08:28:16;82439.28;;;12.07;100.00
64711;BME280;51139;45.626;6.850;2023-11-19T08:30:41;82428.56;;;11.34;100.00
64711;BME280;51139;45.626;6.850;2023-11-19T08:33:09;82430.53;;;10.91;100.00
64711;BME280;51139;45.626;6.850;2023-11-19T08:35:34;82430.50;;;9.89;100.00
64711;BME280;51139;45.626;6.850;2023-11-19T08:38:00;82423.72;;;10.29;100.00
64711;BME280;51139;45.626;6.850;2023-11-19T08:40:25;82427.38;;;11.10;100.00
64711;BME280;51139;45.626;6.850;2023-11-19T08:42:55;82427.97;;;10.58;100.00
64711;BME280;51139;45.626;6.850;2023-11-19T08:45:21;82432.13;;;10.10;100.00
64711;BME280;51139;45.626;6.850;2023-11-19T08:47:46;82426.09;;;10.93;100.00
64711;BME280;51139;45.626;6.850;2023-11-19T08:50:12;82431.06;;;10.72;100.00
64711;BME280;51139;45.626;6.850;2023-11-19T08:52:38;82428.34;;;10.54;100.00
64711;BME280;51139;45.626;6.850;2023-11-19T08:55:04;82435.53;;;11.75;100.00
64711;BME280;51139;45.626;6.850;2023-11-19T08:57:31;82440.00;;;10.76;100.00
64711;BME280;51139;45.626;6.850;2023-11-19T08:59:56;82445.75;;;10.06;100.00
64711;BME280;51139;45.626;6.850;2023-11-19T09:02:21;82445.91;;;9.75;100.00
64711;BME280;51139;45.626;6.850;2023-11-19T09:04:47;82459.78;;;10.25;100.00
64711;BME280;51139;45.626;6.850;2023-11-19T09:07:12;82449.88;;;9.51;100.00
64711;BME280;51139;45.626;6.850;2023-11-19T09:09:38;82456.16;;;9.15;100.00
64711;BME280;51139;45.626;6.850;2023-11-19T09:12:03;82456.91;;;9.56;100.00
64711;BME280;51139;45.626;6.850;2023-11-19T09:14:30;82447.00;;;9.72;100.00
64711;BME280;51139;45.626;6.850;2023-11-19T09:16:56;82447.66;;;9.24;100.00
64711;BME280;51139;45.626;6.850;2023-11-19T09:19:21;82454.69;;;9.37;100.00
64711;BME280;51139;45.626;6.850;2023-11-19T09:21:46;82457.22;;;9.19;100.00
64711;BME280;51139;45.626;6.850;2023-11-19T09:24:13;82450.41;;;9.57;100.00
64711;BME280;51139;45.626;6.850;2023-11-19T09:26:38;82452.31;;;9.64;100.00
64711;BME280;51139;45.626;6.850;2023-11-19T09:29:09;82459.88;;;8.96;100.00
64711;BME280;51139;45.626;6.850;2023-11-19T09:31:34;82455.06;;;9.33;100.00
64711;BME280;51139;45.626;6.850;2023-11-19T09:34:00;82454.25;;;9.00;100.00
64711;BME280;51139;45.626;6.850;2023-11-19T09:36:26;82452.78;;;9.22;100.00
64711;BME280;51139;45.626;6.850;2023-11-19T09:38:51;82454.47;;;8.55;100.00
64711;BME280;51139;45.626;6.850;2023-11-19T09:41:16;82449.34;;;8.26;100.00
64711;BME280;51139;45.626;6.850;2023-11-19T09:43:44;82449.69;;;8.23;100.00
64711;BME280;51139;45.626;6.850;2023-11-19T09:46:10;82461.66;;;8.86;100.00
64711;BME280;51139;45.626;6.850;2023-11-19T09:48:38;82458.16;;;8.75;100.00
64711;BME280;51139;45.626;6.850;2023-11-19T09:51:04;82451.75;;;9.10;100.00
64711;BME280;51139;45.626;6.850;2023-11-19T09:53:31;82444.50;;;9.18;100.00
64711;BME280;51139;45.626;6.850;2023-11-19T09:55:57;82454.34;;;9.25;100.00
64711;BME280;51139;45.626;6.850;2023-11-19T09:58:25;82451.75;;;9.17;100.00
64711;BME280;51139;45.626;6.850;2023-11-19T10:00:51;82456.13;;;9.23;100.00
64711;BME280;51139;45.626;6.850;2023-11-19T10:03:17;82451.44;;;8.90;100.00
64711;BME280;51139;45.626;6.850;2023-11-19T10:05:43;82455.75;;;9.26;100.00
64711;BME280;51139;45.626;6.850;2023-11-19T10:08:08;82457.31;;;9.45;100.00
64711;BME280;51139;45.626;6.850;2023-11-19T10:10:34;82445.41;;;9.13;100.00
64711;BME280;51139;45.626;6.850;2023-11-19T10:13:00;82427.84;;;8.92;100.00
64711;BME280;51139;45.626;6.850;2023-11-19T10:15:26;82441.75;;;9.00;100.00
64711;BME280;51139;45.626;6.850;2023-11-19T10:17:55;82431.72;;;8.99;100.00
64711;BME280;51139;45.626;6.850;2023-11-19T10:20:21;82425.19;;;8.92;100.00
64711;BME280;51139;45.626;6.850;2023-11-19T10:22:47;82430.56;;;9.33;100.00
64711;BME280;51139;45.626;6.850;2023-11-19T10:25:32;82420.16;;;9.27;100.00
64711;BME280;51139;45.626;6.850;2023-11-19T10:27:58;82419.75;;;8.82;100.00
64711;BME280;51139;45.626;6.850;2023-11-19T10:30:28;82421.31;;;8.93;100.00
64711;BME280;51139;45.626;6.850;2023-11-19T10:33:06;82420.03;;;9.17;100.00
64711;BME280;51139;45.626;6.850;2023-11-19T10:35:56;82418.00;;;8.77;100.00
64711;BME280;51139;45.626;6.850;2023-11-19T10:38:22;82419.13;;;9.23;100.00
64711;BME280;51139;45.626;6.850;2023-11-19T10:40:49;82415.44;;;9.26;100.00
64711;BME280;51139;45.626;6.850;2023-11-19T10:43:16;82411.63;;;9.03;100.00
64711;BME280;51139;45.626;6.850;2023-11-19T10:45:42;82412.78;;;9.18;100.00
64711;BME280;51139;45.626;6.850;2023-11-19T10:48:08;82411.56;;;9.19;100.00
64711;BME280;51139;45.626;6.850;2023-11-19T10:50:37;82411.88;;;9.31;100.00
64711;BME280;51139;45.626;6.850;2023-11-19T10:53:04;82403.69;;;9.52;100.00
64711;BME280;51139;45.626;6.850;2023-11-19T10:55:32;82411.81;;;9.46;100.00
64711;BME280;51139;45.626;6.850;2023-11-19T10:58:02;82401.25;;;8.98;100.00
64711;BME280;51139;45.626;6.850;2023-11-19T11:00:48;82411.09;;;9.05;100.00
64711;BME280;51139;45.626;6.850;2023-11-19T11:03:20;82397.25;;;9.30;100.00
64711;BME280;51139;45.626;6.850;2023-11-19T11:05:50;82399.25;;;9.55;100.00
64711;BME280;51139;45.626;6.850;2023-11-19T11:08:16;82395.72;;;9.60;100.00
64711;BME280;51139;45.626;6.850;2023-11-19T11:10:55;82403.56;;;8.86;100.00
64711;BME280;51139;45.626;6.850;2023-11-19T11:13:23;82401.50;;;8.53;100.00
64711;BME280;51139;45.626;6.850;2023-11-19T11:15:50;82405.53;;;8.31;100.00
64711;BME280;51139;45.626;6.850;2023-11-19T11:18:15;82401.50;;;8.22;100.00
64711;BME280;51139;45.626;6.850;2023-11-19T11:20:44;82403.59;;;8.24;100.00
64711;BME280;51139;45.626;6.850;2023-11-19T11:28:48;82392.50;;;8.64;100.00
64711;BME280;51139;45.626;6.850;2023-11-19T11:37:21;82389.00;;;8.54;100.00
64711;BME280;51139;45.626;6.850;2023-11-19T11:39:50;82392.69;;;8.43;100.00
64711;BME280;51139;45.626;6.850;2023-11-19T11:47:26;82393.34;;;8.82;100.00
64711;BME280;51139;45.626;6.850;2023-11-19T11:50:20;82393.91;;;8.65;100.00
